Fallen Leaf, California
Current Conditions -  °F | °C
As of 2:26 PM on Friday 19 Dec 2014 (Local Time) from KTVL Reporting Station
Light Snow Light Snow  
Wind Chill: 30°   Ceiling: 1100
Heat Index: 35°   Visibility: 1mi
Dew Point: 31°   Wind: 6mph
Humidity: 85%   Direction: 170°S
Pressure: 30.13"   Gusts: NA
Location:  38.8831°N, 120.071°W
Report Text: KTVL 192226Z AUTO 17005KT 1SM -SN BR FEW007 OVC011 02/M01 A3013 RMK AO2 P0002 T00171006
Loading
Personal Weather Stations






























Interactive Weather Map New forecast layout! Learn more

10-Day Weather Forecast

Advertisements
Track Severe Weather on mobile